createdAt,value
2022-07-27T00:00:16.230Z,146626.75
2022-07-27T00:05:20.305Z,146628.00
2022-07-27T00:10:23.070Z,146629.22
2022-07-27T00:15:27.279Z,146600.72
2022-07-27T00:20:30.773Z,146583.41
2022-07-27T00:25:33.243Z,146574.75
2022-07-27T00:30:37.436Z,146574.75
2022-07-27T00:35:40.022Z,146608.19
2022-07-27T00:40:42.628Z,146620.56
2022-07-27T00:45:46.648Z,146623.03
2022-07-27T00:50:49.656Z,146629.22
2022-07-27T00:55:52.346Z,146662.69
2022-07-27T01:00:56.341Z,146702.31
2022-07-27T01:06:00.119Z,146744.44
2022-07-27T01:11:05.119Z,146758.06
2022-07-27T01:16:09.172Z,146750.63
2022-07-27T01:21:11.829Z,146744.44
2022-07-27T01:26:15.837Z,146741.97
2022-07-27T01:31:18.595Z,146751.84
2022-07-27T01:36:21.380Z,146754.34
2022-07-27T01:41:25.506Z,146745.66
2022-07-27T01:46:28.548Z,146738.25
2022-07-27T01:51:31.567Z,146759.28
2022-07-27T01:56:35.684Z,146785.34
2022-07-27T02:01:38.334Z,146817.53
2022-07-27T02:06:41.617Z,146839.91
2022-07-27T02:12:03.333Z,146843.63
2022-07-27T02:17:05.944Z,146841.16
2022-07-27T02:22:09.241Z,146847.34
2022-07-27T02:27:13.527Z,146816.28
2022-07-27T02:32:16.229Z,146777.91
2022-07-27T02:37:18.887Z,146718.38
2022-07-27T02:42:22.902Z,146670.13
2022-07-27T02:47:25.995Z,146626.75
2022-07-27T02:52:28.811Z,146588.34
2022-07-27T02:57:34.394Z,146537.56
2022-07-27T03:02:38.899Z,146488.06
2022-07-27T03:07:41.534Z,146450.94
2022-07-27T03:12:45.997Z,146422.41
2022-07-27T03:17:48.578Z,146423.63
2022-07-27T03:22:51.211Z,146442.28
2022-07-27T03:27:57.302Z,146464.56
2022-07-27T03:33:01.962Z,146490.56
2022-07-27T03:38:04.822Z,146486.81
2022-07-27T03:43:09.105Z,146484.34
2022-07-27T03:48:11.761Z,146481.88
2022-07-27T03:53:14.806Z,146489.34
2022-07-27T03:58:19.143Z,146530.16
2022-07-27T04:03:21.810Z,146553.72
2022-07-27T04:08:24.614Z,146580.94
2022-07-27T04:13:28.710Z,146637.91
2022-07-27T04:18:34.913Z,146704.78
2022-07-27T04:23:38.502Z,146782.84
2022-07-27T04:28:42.783Z,146857.25
2022-07-27T04:33:45.425Z,146910.53
2022-07-27T04:38:48.158Z,146952.72
2022-07-27T04:43:52.685Z,146991.09
2022-07-27T04:48:55.420Z,147024.59
2022-07-27T04:53:58.651Z,147027.09
2022-07-27T04:59:02.901Z,147076.69
2022-07-27T05:04:06.524Z,147131.28
2022-07-27T05:09:09.532Z,147198.28
2022-07-27T05:14:13.624Z,147244.22
2022-07-27T05:19:16.342Z,147259.09
2022-07-27T05:24:18.952Z,147421.69
2022-07-27T05:29:23.303Z,147804.34
2022-07-27T05:34:25.941Z,147968.44
2022-07-27T05:39:28.760Z,148381.59
2022-07-27T05:44:32.602Z,148786.50
2022-07-27T05:49:35.072Z,148837.59
2022-07-27T05:54:37.705Z,148624.47
2022-07-27T05:59:41.557Z,148674.31
2022-07-27T06:04:43.946Z,148769.06
2022-07-27T06:09:46.662Z,148897.44
2022-07-27T06:14:51.636Z,149080.78
2022-07-27T06:19:54.193Z,149316.63
2022-07-27T06:24:56.863Z,149386.59
2022-07-27T06:30:00.741Z,148860.03
2022-07-27T06:35:03.438Z,148517.38
2022-07-27T06:40:07.606Z,148830.13
2022-07-27T06:45:12.665Z,148717.91
2022-07-27T06:50:15.355Z,148634.47
2022-07-27T06:55:17.781Z,149105.75
2022-07-27T07:00:22.125Z,149543.94
2022-07-27T07:05:25.347Z,149568.94
2022-07-27T07:10:28.463Z,149387.84
2022-07-27T07:15:32.603Z,149225.56
2022-07-27T07:20:35.154Z,149638.88
2022-07-27T07:25:38.547Z,148998.50
2022-07-27T07:30:42.698Z,148731.66
2022-07-27T07:36:14.294Z,148509.88
2022-07-27T07:41:07.748Z,148284.53
2022-07-27T07:46:11.677Z,148204.81
2022-07-27T07:51:14.270Z,148219.75
2022-07-27T07:56:16.957Z,148193.63
2022-07-27T08:01:21.101Z,148141.38
2022-07-27T08:06:23.646Z,148147.59
2022-07-27T08:11:26.198Z,148366.66
2022-07-27T08:16:30.576Z,148693.03
2022-07-27T08:21:35.524Z,148817.69
2022-07-27T08:26:38.315Z,148570.94
2022-07-27T08:31:52.594Z,148802.72
2022-07-27T08:36:56.368Z,148704.22
2022-07-27T08:42:04.117Z,148548.50
2022-07-27T08:47:10.027Z,149215.59
2022-07-27T08:52:12.874Z,149796.34
2022-07-27T08:57:15.515Z,149816.31
2022-07-27T09:02:21.597Z,149618.91
2022-07-27T09:07:31.266Z,149284.19
2022-07-27T09:12:34.593Z,148860.03
2022-07-27T09:17:48.960Z,148644.44
2022-07-27T09:22:54.404Z,148534.81
2022-07-27T09:27:59.337Z,148543.53
2022-07-27T09:33:05.479Z,149491.44
2022-07-27T09:38:18.954Z,150123.91
2022-07-27T09:44:12.257Z,150160.19
2022-07-27T09:48:45.387Z,149738.88
2022-07-27T09:53:49.151Z,149482.69
2022-07-27T09:58:55.726Z,149721.34
2022-07-27T10:04:01.517Z,150227.78
2022-07-27T10:09:04.616Z,149861.31
2022-07-27T10:14:07.955Z,149586.41
2022-07-27T10:19:16.584Z,149307.91
2022-07-27T10:24:28.729Z,149221.81
2022-07-27T10:29:31.290Z,149094.53
2022-07-27T10:34:36.329Z,148996.00
2022-07-27T10:39:41.031Z,149231.78
2022-07-27T10:45:07.506Z,150106.44
2022-07-27T10:50:29.781Z,149788.78
2022-07-27T10:55:44.490Z,149337.91
2022-07-27T11:00:59.828Z,149136.97
2022-07-27T11:06:31.552Z,149022.16
2022-07-27T11:11:30.215Z,149119.47
2022-07-27T11:16:32.820Z,149487.69
2022-07-27T11:21:38.387Z,149743.84
2022-07-27T11:26:42.615Z,150269.09
2022-07-27T11:31:56.351Z,150403.00
2022-07-27T11:37:03.451Z,150496.88
2022-07-27T11:42:08.769Z,150510.63
2022-07-27T11:47:17.648Z,149976.34
2022-07-27T11:52:21.560Z,149703.81
2022-07-27T11:57:32.913Z,150204.00
2022-07-27T12:02:35.511Z,150439.31
2022-07-27T12:07:41.018Z,150105.19
2022-07-27T12:12:50.351Z,149970.09
2022-07-27T12:17:57.208Z,149446.53
2022-07-27T12:23:05.950Z,149166.91
2022-07-27T12:28:12.466Z,149049.63
2022-07-27T12:33:28.127Z,148944.88
2022-07-27T12:38:40.445Z,148987.28
2022-07-27T12:43:42.984Z,148989.78
2022-07-27T12:48:45.878Z,149012.19
2022-07-27T12:53:49.857Z,149472.72
2022-07-27T12:59:00.272Z,150111.41
2022-07-27T13:04:02.857Z,150291.59
2022-07-27T13:09:06.751Z,150140.22
2022-07-27T13:14:09.307Z,149808.81
2022-07-27T13:19:14.204Z,149588.91
2022-07-27T13:24:18.437Z,149525.22
2022-07-27T13:29:21.415Z,149542.69
2022-07-27T13:34:24.031Z,149595.13
2022-07-27T13:39:28.053Z,149705.06
2022-07-27T13:44:59.306Z,149911.38
2022-07-27T13:49:53.127Z,149692.59
2022-07-27T13:54:56.986Z,149613.84
2022-07-27T13:59:59.916Z,149565.19
2022-07-27T14:05:02.672Z,149483.94
2022-07-27T14:10:31.555Z,149427.75
2022-07-27T14:15:34.239Z,149320.38
2022-07-27T14:20:54.243Z,149255.47
2022-07-27T14:26:00.023Z,149251.75
2022-07-27T14:31:04.539Z,149291.69
2022-07-27T14:36:10.326Z,149309.16
2022-07-27T14:41:14.257Z,149341.66
2022-07-27T14:46:17.133Z,149339.16
2022-07-27T14:51:19.732Z,149466.47
2022-07-27T14:56:23.667Z,149698.81
2022-07-27T15:01:26.427Z,149656.34
2022-07-27T15:06:32.845Z,149527.72
2022-07-27T15:11:40.898Z,149402.81
2022-07-27T15:16:45.723Z,149450.25
2022-07-27T15:21:48.450Z,149369.09
2022-07-27T15:26:52.499Z,149311.63
2022-07-27T15:31:55.393Z,149523.97
2022-07-27T15:36:58.896Z,149502.72
2022-07-27T15:42:02.837Z,149606.38
2022-07-27T15:47:05.476Z,149573.94
2022-07-27T15:52:08.048Z,149546.44
2022-07-27T15:57:11.940Z,149468.97
2022-07-27T16:02:14.508Z,149631.38
2022-07-27T16:07:17.026Z,149660.06
2022-07-27T16:12:21.021Z,149456.50
2022-07-27T16:17:23.848Z,149234.28
2022-07-27T16:22:26.772Z,148997.25
2022-07-27T16:27:30.703Z,148888.72
2022-07-27T16:32:33.310Z,148866.31
2022-07-27T16:37:35.853Z,148807.72
2022-07-27T16:42:39.771Z,148711.69
2022-07-27T16:47:42.501Z,148707.97
2022-07-27T16:52:45.250Z,148668.06
2022-07-27T16:57:48.991Z,148604.56
2022-07-27T17:02:51.590Z,148766.56
2022-07-27T17:07:54.247Z,148810.22
2022-07-27T17:12:58.520Z,148751.63
2022-07-27T17:18:01.664Z,148680.53
2022-07-27T17:23:04.465Z,148570.94
2022-07-27T17:28:08.388Z,148499.91
2022-07-27T17:33:10.914Z,148451.31
2022-07-27T17:38:15.762Z,148431.41
2022-07-27T17:43:19.632Z,148471.25
2022-07-27T17:48:22.242Z,148670.56
2022-07-27T17:53:26.914Z,148765.34
2022-07-27T17:58:30.952Z,148656.88
2022-07-27T18:03:33.948Z,148526.09
2022-07-27T18:08:37.286Z,148508.63
2022-07-27T18:13:41.810Z,148527.34
2022-07-27T18:18:45.550Z,148518.63
2022-07-27T18:23:48.346Z,148482.47
2022-07-27T18:28:52.955Z,148409.00
2022-07-27T18:33:56.016Z,148346.78
2022-07-27T18:38:58.761Z,148316.88
2022-07-27T18:44:02.693Z,148268.31
2022-07-27T18:49:05.804Z,148247.13
2022-07-27T18:54:10.547Z,148220.97
2022-07-27T18:59:16.063Z,148168.75
2022-07-27T19:04:18.898Z,148147.59
2022-07-27T19:09:22.163Z,148110.28
2022-07-27T19:14:26.312Z,148081.66
2022-07-27T19:19:29.576Z,148030.66
2022-07-27T19:24:32.640Z,147969.69
2022-07-27T19:29:36.583Z,147923.69
2022-07-27T19:34:39.354Z,147871.44
2022-07-27T19:39:57.208Z,147791.94
2022-07-27T19:45:07.242Z,147719.81
2022-07-27T19:50:10.739Z,147637.78
2022-07-27T19:55:13.393Z,147586.91
2022-07-27T20:00:18.204Z,147548.38
2022-07-27T20:05:21.232Z,147554.59
2022-07-27T20:10:25.224Z,147523.53
2022-07-27T20:15:29.748Z,147483.81
2022-07-27T20:20:32.840Z,147437.81
2022-07-27T20:25:35.827Z,147416.72
2022-07-27T20:30:39.853Z,147373.28
2022-07-27T20:35:42.448Z,147349.66
2022-07-27T20:40:45.052Z,147323.63
2022-07-27T20:45:49.020Z,147303.78
2022-07-27T20:50:51.651Z,147283.88
2022-07-27T20:55:54.657Z,147259.09
2022-07-27T21:00:58.840Z,147210.69
2022-07-27T21:06:01.591Z,147163.53
2022-07-27T21:11:06.066Z,147133.75
2022-07-27T21:16:10.000Z,147123.84
2022-07-27T21:21:12.600Z,147096.53
2022-07-27T21:26:15.591Z,147081.66
2022-07-27T21:31:22.256Z,147069.25
2022-07-27T21:36:25.261Z,147039.47
2022-07-27T21:41:28.021Z,147008.50
2022-07-27T21:46:32.086Z,146982.44
2022-07-27T21:51:35.045Z,146956.41
2022-07-27T21:56:40.858Z,146909.31
2022-07-27T22:01:46.569Z,146841.16
2022-07-27T22:06:49.087Z,146805.16
2022-07-27T22:11:51.655Z,146766.72
2022-07-27T22:16:56.495Z,146737.00
2022-07-27T22:21:59.120Z,146706.00
2022-07-27T22:27:01.605Z,146681.25
2022-07-27T22:32:06.805Z,146670.13
2022-07-27T22:37:09.366Z,146666.41
2022-07-27T22:42:15.454Z,146656.47
2022-07-27T22:47:19.331Z,146657.69
2022-07-27T22:52:21.866Z,146657.69
2022-07-27T22:57:25.697Z,146645.31
2022-07-27T23:02:29.576Z,146635.41
2022-07-27T23:07:32.219Z,146616.84
2022-07-27T23:12:34.755Z,146604.44
2022-07-27T23:17:38.894Z,146585.88
2022-07-27T23:22:41.592Z,146569.78
2022-07-27T23:27:44.548Z,146568.56
2022-07-27T23:32:48.417Z,146567.31
2022-07-27T23:37:50.956Z,146569.78
2022-07-27T23:42:53.527Z,146553.72
2022-07-27T23:47:57.418Z,146535.09
2022-07-27T23:53:00.274Z,146520.25
2022-07-27T23:58:02.905Z,146498.00
